sensor_id;sensor_type;location;lat;lon;timestamp;P1;durP1;ratioP1;P2;durP2;ratioP2
71368;SDS011;59175;53.214;5.728;2023-03-23T00:04:51;3.50;;;1.23;;
71368;SDS011;59175;53.214;5.728;2023-03-23T00:07:16;2.40;;;0.50;;
71368;SDS011;59175;53.214;5.728;2023-03-23T00:09:46;3.30;;;0.77;;
71368;SDS011;59175;53.214;5.728;2023-03-23T00:12:12;3.13;;;0.80;;
71368;SDS011;59175;53.214;5.728;2023-03-23T00:14:40;6.05;;;1.60;;
71368;SDS011;59175;53.214;5.728;2023-03-23T00:17:08;3.37;;;1.30;;
71368;SDS011;59175;53.214;5.728;2023-03-23T00:19:36;4.60;;;1.92;;
71368;SDS011;59175;53.214;5.728;2023-03-23T00:22:10;5.22;;;1.17;;
71368;SDS011;59175;53.214;5.728;2023-03-23T00:24:35;6.00;;;1.97;;
71368;SDS011;59175;53.214;5.728;2023-03-23T00:27:01;4.05;;;1.88;;
71368;SDS011;59175;53.214;5.728;2023-03-23T00:29:28;4.85;;;1.65;;
71368;SDS011;59175;53.214;5.728;2023-03-23T00:31:53;7.23;;;1.83;;
71368;SDS011;59175;53.214;5.728;2023-03-23T00:34:22;8.33;;;2.93;;
71368;SDS011;59175;53.214;5.728;2023-03-23T00:36:50;7.43;;;2.65;;
71368;SDS011;59175;53.214;5.728;2023-03-23T00:39:16;6.70;;;2.20;;
71368;SDS011;59175;53.214;5.728;2023-03-23T00:41:42;7.35;;;2.40;;
71368;SDS011;59175;53.214;5.728;2023-03-23T00:44:08;9.00;;;2.92;;
71368;SDS011;59175;53.214;5.728;2023-03-23T00:46:33;7.10;;;2.47;;
71368;SDS011;59175;53.214;5.728;2023-03-23T00:48:58;7.47;;;3.73;;
71368;SDS011;59175;53.214;5.728;2023-03-23T00:51:24;13.73;;;4.20;;
71368;SDS011;59175;53.214;5.728;2023-03-23T00:53:49;7.57;;;3.27;;
71368;SDS011;59175;53.214;5.728;2023-03-23T00:56:15;8.40;;;4.00;;
71368;SDS011;59175;53.214;5.728;2023-03-23T00:58:40;10.50;;;3.13;;
71368;SDS011;59175;53.214;5.728;2023-03-23T01:01:05;11.30;;;3.73;;
71368;SDS011;59175;53.214;5.728;2023-03-23T01:03:31;9.17;;;3.57;;
71368;SDS011;59175;53.214;5.728;2023-03-23T01:05:56;11.98;;;3.00;;
71368;SDS011;59175;53.214;5.728;2023-03-23T01:08:23;5.20;;;2.33;;
71368;SDS011;59175;53.214;5.728;2023-03-23T01:10:48;16.27;;;2.93;;
71368;SDS011;59175;53.214;5.728;2023-03-23T01:13:13;7.10;;;1.92;;
71368;SDS011;59175;53.214;5.728;2023-03-23T01:15:39;4.43;;;1.57;;
71368;SDS011;59175;53.214;5.728;2023-03-23T01:18:05;5.03;;;1.63;;
71368;SDS011;59175;53.214;5.728;2023-03-23T01:20:30;10.80;;;1.88;;
71368;SDS011;59175;53.214;5.728;2023-03-23T01:22:59;6.63;;;2.30;;
71368;SDS011;59175;53.214;5.728;2023-03-23T01:25:28;12.40;;;2.45;;
71368;SDS011;59175;53.214;5.728;2023-03-23T01:27:53;9.45;;;3.15;;
71368;SDS011;59175;53.214;5.728;2023-03-23T01:30:18;6.47;;;2.57;;
71368;SDS011;59175;53.214;5.728;2023-03-23T01:32:44;7.93;;;1.83;;
71368;SDS011;59175;53.214;5.728;2023-03-23T01:35:09;5.10;;;1.93;;
71368;SDS011;59175;53.214;5.728;2023-03-23T01:37:36;4.97;;;1.63;;
71368;SDS011;59175;53.214;5.728;2023-03-23T01:40:02;7.90;;;1.50;;
71368;SDS011;59175;53.214;5.728;2023-03-23T01:42:32;4.80;;;1.30;;
71368;SDS011;59175;53.214;5.728;2023-03-23T01:45:22;7.85;;;2.72;;
71368;SDS011;59175;53.214;5.728;2023-03-23T01:47:43;7.13;;;1.97;;
71368;SDS011;59175;53.214;5.728;2023-03-23T01:50:09;10.00;;;2.35;;
71368;SDS011;59175;53.214;5.728;2023-03-23T01:52:35;6.33;;;1.40;;
71368;SDS011;59175;53.214;5.728;2023-03-23T01:55:01;4.20;;;1.15;;
71368;SDS011;59175;53.214;5.728;2023-03-23T01:57:26;15.85;;;2.65;;
71368;SDS011;59175;53.214;5.728;2023-03-23T01:59:53;7.93;;;1.90;;
71368;SDS011;59175;53.214;5.728;2023-03-23T02:02:20;12.30;;;1.65;;
71368;SDS011;59175;53.214;5.728;2023-03-23T02:04:46;3.58;;;0.98;;
71368;SDS011;59175;53.214;5.728;2023-03-23T02:07:12;9.30;;;1.70;;
71368;SDS011;59175;53.214;5.728;2023-03-23T02:09:37;6.15;;;1.55;;
71368;SDS011;59175;53.214;5.728;2023-03-23T02:12:03;4.87;;;1.87;;
71368;SDS011;59175;53.214;5.728;2023-03-23T02:14:28;7.70;;;1.50;;
71368;SDS011;59175;53.214;5.728;2023-03-23T02:30:43;4.55;;;0.60;;
71368;SDS011;59175;53.214;5.728;2023-03-23T02:33:11;5.40;;;1.33;;
71368;SDS011;59175;53.214;5.728;2023-03-23T02:35:39;3.07;;;0.83;;
71368;SDS011;59175;53.214;5.728;2023-03-23T02:38:08;2.45;;;0.75;;
71368;SDS011;59175;53.214;5.728;2023-03-23T02:40:38;3.55;;;0.98;;
71368;SDS011;59175;53.214;5.728;2023-03-23T02:43:06;3.60;;;0.93;;
71368;SDS011;59175;53.214;5.728;2023-03-23T02:45:32;3.33;;;1.10;;
71368;SDS011;59175;53.214;5.728;2023-03-23T02:47:58;6.10;;;1.27;;
71368;SDS011;59175;53.214;5.728;2023-03-23T02:50:25;6.30;;;1.00;;
71368;SDS011;59175;53.214;5.728;2023-03-23T02:52:52;4.95;;;1.05;;
71368;SDS011;59175;53.214;5.728;2023-03-23T02:55:18;6.63;;;1.55;;
71368;SDS011;59175;53.214;5.728;2023-03-23T02:57:44;3.40;;;0.98;;
71368;SDS011;59175;53.214;5.728;2023-03-23T03:00:10;1.83;;;0.87;;
71368;SDS011;59175;53.214;5.728;2023-03-23T03:02:38;4.95;;;1.02;;
71368;SDS011;59175;53.214;5.728;2023-03-23T03:12:49;4.87;;;2.13;;
71368;SDS011;59175;53.214;5.728;2023-03-23T03:15:37;5.50;;;1.48;;
71368;SDS011;59175;53.214;5.728;2023-03-23T03:20:30;4.60;;;0.85;;
71368;SDS011;59175;53.214;5.728;2023-03-23T03:22:56;3.75;;;0.52;;
71368;SDS011;59175;53.214;5.728;2023-03-23T03:25:22;2.33;;;0.30;;
71368;SDS011;59175;53.214;5.728;2023-03-23T03:27:48;4.38;;;1.23;;
71368;SDS011;59175;53.214;5.728;2023-03-23T03:30:17;2.55;;;0.52;;
71368;SDS011;59175;53.214;5.728;2023-03-23T03:32:44;4.43;;;0.90;;
71368;SDS011;59175;53.214;5.728;2023-03-23T03:35:13;6.60;;;0.50;;
71368;SDS011;59175;53.214;5.728;2023-03-23T03:37:39;3.17;;;0.47;;
71368;SDS011;59175;53.214;5.728;2023-03-23T03:40:05;3.87;;;0.47;;
71368;SDS011;59175;53.214;5.728;2023-03-23T03:42:36;7.75;;;0.50;;
71368;SDS011;59175;53.214;5.728;2023-03-23T03:45:01;3.33;;;0.50;;
71368;SDS011;59175;53.214;5.728;2023-03-23T03:47:27;3.30;;;0.83;;
71368;SDS011;59175;53.214;5.728;2023-03-23T03:49:52;1.63;;;0.33;;
71368;SDS011;59175;53.214;5.728;2023-03-23T03:52:17;6.07;;;0.47;;
71368;SDS011;59175;53.214;5.728;2023-03-23T03:54:42;2.33;;;0.70;;
71368;SDS011;59175;53.214;5.728;2023-03-23T03:57:08;1.23;;;0.30;;
71368;SDS011;59175;53.214;5.728;2023-03-23T03:59:33;1.67;;;0.37;;
71368;SDS011;59175;53.214;5.728;2023-03-23T04:01:59;1.20;;;0.20;;
71368;SDS011;59175;53.214;5.728;2023-03-23T04:04:24;3.03;;;0.20;;
71368;SDS011;59175;53.214;5.728;2023-03-23T04:06:49;1.83;;;0.43;;
71368;SDS011;59175;53.214;5.728;2023-03-23T04:09:15;2.67;;;0.60;;
71368;SDS011;59175;53.214;5.728;2023-03-23T04:11:40;1.87;;;0.40;;
71368;SDS011;59175;53.214;5.728;2023-03-23T04:14:05;4.63;;;0.43;;
71368;SDS011;59175;53.214;5.728;2023-03-23T04:16:31;1.83;;;0.30;;
71368;SDS011;59175;53.214;5.728;2023-03-23T04:18:59;2.87;;;0.40;;
71368;SDS011;59175;53.214;5.728;2023-03-23T04:21:25;5.45;;;1.00;;
71368;SDS011;59175;53.214;5.728;2023-03-23T04:23:53;4.57;;;1.02;;
71368;SDS011;59175;53.214;5.728;2023-03-23T04:26:18;5.43;;;0.40;;
71368;SDS011;59175;53.214;5.728;2023-03-23T04:28:44;6.13;;;0.60;;
71368;SDS011;59175;53.214;5.728;2023-03-23T04:31:09;4.43;;;0.30;;
71368;SDS011;59175;53.214;5.728;2023-03-23T04:33:37;4.97;;;0.85;;
71368;SDS011;59175;53.214;5.728;2023-03-23T04:36:03;0.80;;;0.10;;
71368;SDS011;59175;53.214;5.728;2023-03-23T04:38:28;1.40;;;0.23;;
71368;SDS011;59175;53.214;5.728;2023-03-23T04:40:54;8.93;;;2.10;;
71368;SDS011;59175;53.214;5.728;2023-03-23T04:43:21;3.35;;;0.47;;
71368;SDS011;59175;53.214;5.728;2023-03-23T04:45:51;3.92;;;0.30;;
71368;SDS011;59175;53.214;5.728;2023-03-23T04:48:17;3.53;;;0.67;;
71368;SDS011;59175;53.214;5.728;2023-03-23T04:50:42;5.07;;;0.70;;
71368;SDS011;59175;53.214;5.728;2023-03-23T04:53:08;6.47;;;0.47;;
71368;SDS011;59175;53.214;5.728;2023-03-23T04:55:34;0.80;;;0.10;;
71368;SDS011;59175;53.214;5.728;2023-03-23T04:58:03;3.30;;;0.52;;
71368;SDS011;59175;53.214;5.728;2023-03-23T05:00:29;3.43;;;0.57;;
71368;SDS011;59175;53.214;5.728;2023-03-23T05:02:54;7.17;;;0.83;;
71368;SDS011;59175;53.214;5.728;2023-03-23T05:05:20;4.60;;;0.90;;
71368;SDS011;59175;53.214;5.728;2023-03-23T05:07:46;4.63;;;0.30;;
71368;SDS011;59175;53.214;5.728;2023-03-23T05:10:12;15.60;;;0.83;;
71368;SDS011;59175;53.214;5.728;2023-03-23T05:12:37;4.25;;;1.38;;
71368;SDS011;59175;53.214;5.728;2023-03-23T05:15:03;2.47;;;0.70;;
71368;SDS011;59175;53.214;5.728;2023-03-23T05:17:28;7.10;;;0.60;;
71368;SDS011;59175;53.214;5.728;2023-03-23T05:19:55;2.60;;;0.50;;
71368;SDS011;59175;53.214;5.728;2023-03-23T05:22:21;2.75;;;0.60;;
71368;SDS011;59175;53.214;5.728;2023-03-23T05:24:47;10.57;;;0.82;;
71368;SDS011;59175;53.214;5.728;2023-03-23T05:27:13;3.10;;;0.90;;
71368;SDS011;59175;53.214;5.728;2023-03-23T05:29:39;17.20;;;1.52;;
71368;SDS011;59175;53.214;5.728;2023-03-23T05:32:06;4.35;;;0.68;;
71368;SDS011;59175;53.214;5.728;2023-03-23T05:34:32;6.20;;;1.13;;
71368;SDS011;59175;53.214;5.728;2023-03-23T05:36:58;8.73;;;1.95;;
71368;SDS011;59175;53.214;5.728;2023-03-23T05:39:24;2.50;;;0.38;;
71368;SDS011;59175;53.214;5.728;2023-03-23T05:41:49;6.00;;;0.80;;
71368;SDS011;59175;53.214;5.728;2023-03-23T05:44:14;4.13;;;0.40;;
71368;SDS011;59175;53.214;5.728;2023-03-23T05:46:40;5.10;;;1.30;;
71368;SDS011;59175;53.214;5.728;2023-03-23T05:49:05;10.27;;;0.93;;
71368;SDS011;59175;53.214;5.728;2023-03-23T05:51:30;12.83;;;0.83;;
71368;SDS011;59175;53.214;5.728;2023-03-23T05:53:55;4.47;;;0.40;;
71368;SDS011;59175;53.214;5.728;2023-03-23T05:56:21;12.60;;;0.60;;
71368;SDS011;59175;53.214;5.728;2023-03-23T05:58:46;5.27;;;0.30;;
71368;SDS011;59175;53.214;5.728;2023-03-23T06:01:11;4.10;;;0.37;;
71368;SDS011;59175;53.214;5.728;2023-03-23T06:03:39;1.85;;;0.40;;
71368;SDS011;59175;53.214;5.728;2023-03-23T06:06:04;5.93;;;0.40;;
71368;SDS011;59175;53.214;5.728;2023-03-23T06:08:30;2.40;;;0.30;;
71368;SDS011;59175;53.214;5.728;2023-03-23T06:10:55;0.75;;;0.20;;
71368;SDS011;59175;53.214;5.728;2023-03-23T06:13:20;5.30;;;0.33;;
71368;SDS011;59175;53.214;5.728;2023-03-23T06:15:46;3.10;;;0.47;;
71368;SDS011;59175;53.214;5.728;2023-03-23T06:18:11;6.33;;;0.97;;
71368;SDS011;59175;53.214;5.728;2023-03-23T06:20:37;5.75;;;0.50;;
71368;SDS011;59175;53.214;5.728;2023-03-23T06:23:04;5.60;;;1.05;;
71368;SDS011;59175;53.214;5.728;2023-03-23T06:25:29;6.13;;;0.70;;
71368;SDS011;59175;53.214;5.728;2023-03-23T06:27:54;2.10;;;0.47;;
71368;SDS011;59175;53.214;5.728;2023-03-23T06:30:20;3.93;;;0.50;;
71368;SDS011;59175;53.214;5.728;2023-03-23T06:32:45;2.97;;;0.27;;
71368;SDS011;59175;53.214;5.728;2023-03-23T06:35:12;3.00;;;0.40;;
71368;SDS011;59175;53.214;5.728;2023-03-23T06:37:38;5.03;;;0.60;;
71368;SDS011;59175;53.214;5.728;2023-03-23T06:40:03;2.73;;;0.30;;
71368;SDS011;59175;53.214;5.728;2023-03-23T06:42:31;8.40;;;0.77;;
71368;SDS011;59175;53.214;5.728;2023-03-23T06:44:57;1.25;;;0.38;;
71368;SDS011;59175;53.214;5.728;2023-03-23T06:47:23;4.40;;;0.40;;
71368;SDS011;59175;53.214;5.728;2023-03-23T06:49:48;4.10;;;1.05;;
71368;SDS011;59175;53.214;5.728;2023-03-23T06:52:13;7.20;;;0.80;;
71368;SDS011;59175;53.214;5.728;2023-03-23T06:54:38;11.33;;;0.70;;
71368;SDS011;59175;53.214;5.728;2023-03-23T06:57:04;7.87;;;0.80;;
71368;SDS011;59175;53.214;5.728;2023-03-23T06:59:29;13.82;;;1.30;;
71368;SDS011;59175;53.214;5.728;2023-03-23T07:01:55;11.23;;;1.30;;
71368;SDS011;59175;53.214;5.728;2023-03-23T07:04:20;8.03;;;0.60;;
71368;SDS011;59175;53.214;5.728;2023-03-23T07:06:46;5.73;;;0.83;;
71368;SDS011;59175;53.214;5.728;2023-03-23T07:09:11;8.05;;;1.90;;
71368;SDS011;59175;53.214;5.728;2023-03-23T07:11:37;14.27;;;2.23;;
71368;SDS011;59175;53.214;5.728;2023-03-23T07:14:02;1.60;;;0.53;;
71368;SDS011;59175;53.214;5.728;2023-03-23T07:16:27;5.73;;;0.77;;
71368;SDS011;59175;53.214;5.728;2023-03-23T07:18:53;8.10;;;0.70;;
71368;SDS011;59175;53.214;5.728;2023-03-23T07:21:18;4.13;;;0.47;;
71368;SDS011;59175;53.214;5.728;2023-03-23T07:23:43;3.80;;;0.60;;
71368;SDS011;59175;53.214;5.728;2023-03-23T07:26:11;8.98;;;1.05;;
71368;SDS011;59175;53.214;5.728;2023-03-23T07:28:36;4.20;;;0.47;;
71368;SDS011;59175;53.214;5.728;2023-03-23T07:31:01;5.17;;;1.17;;
71368;SDS011;59175;53.214;5.728;2023-03-23T07:33:27;8.00;;;0.93;;
71368;SDS011;59175;53.214;5.728;2023-03-23T07:35:52;13.23;;;1.13;;
71368;SDS011;59175;53.214;5.728;2023-03-23T07:38:17;5.17;;;0.43;;
71368;SDS011;59175;53.214;5.728;2023-03-23T07:40:42;1.43;;;0.17;;
71368;SDS011;59175;53.214;5.728;2023-03-23T07:43:09;11.43;;;1.38;;
71368;SDS011;59175;53.214;5.728;2023-03-23T07:45:34;4.17;;;1.17;;
71368;SDS011;59175;53.214;5.728;2023-03-23T07:47:59;8.17;;;1.20;;
71368;SDS011;59175;53.214;5.728;2023-03-23T07:50:25;6.70;;;0.50;;
71368;SDS011;59175;53.214;5.728;2023-03-23T07:52:53;9.67;;;1.50;;
71368;SDS011;59175;53.214;5.728;2023-03-23T07:55:18;8.68;;;0.82;;
71368;SDS011;59175;53.214;5.728;2023-03-23T07:57:44;8.13;;;1.37;;
71368;SDS011;59175;53.214;5.728;2023-03-23T08:00:10;9.25;;;1.15;;
71368;SDS011;59175;53.214;5.728;2023-03-23T08:02:40;3.70;;;0.50;;
71368;SDS011;59175;53.214;5.728;2023-03-23T08:05:06;9.50;;;0.60;;
71368;SDS011;59175;53.214;5.728;2023-03-23T08:07:33;8.07;;;2.05;;
71368;SDS011;59175;53.214;5.728;2023-03-23T08:09:59;11.35;;;1.20;;
71368;SDS011;59175;53.214;5.728;2023-03-23T08:12:24;8.50;;;0.90;;
71368;SDS011;59175;53.214;5.728;2023-03-23T08:14:50;11.93;;;1.50;;
71368;SDS011;59175;53.214;5.728;2023-03-23T08:17:16;5.10;;;1.23;;
71368;SDS011;59175;53.214;5.728;2023-03-23T08:19:41;5.93;;;0.70;;
71368;SDS011;59175;53.214;5.728;2023-03-23T08:22:08;4.93;;;0.77;;
71368;SDS011;59175;53.214;5.728;2023-03-23T08:24:33;9.97;;;1.40;;
71368;SDS011;59175;53.214;5.728;2023-03-23T08:26:59;7.23;;;1.60;;
71368;SDS011;59175;53.214;5.728;2023-03-23T08:29:24;2.13;;;0.32;;
71368;SDS011;59175;53.214;5.728;2023-03-23T08:31:50;5.70;;;1.00;;
71368;SDS011;59175;53.214;5.728;2023-03-23T08:34:15;23.27;;;1.37;;
71368;SDS011;59175;53.214;5.728;2023-03-23T08:36:40;13.98;;;1.58;;
71368;SDS011;59175;53.214;5.728;2023-03-23T08:39:08;6.15;;;0.52;;
71368;SDS011;59175;53.214;5.728;2023-03-23T08:41:33;4.60;;;0.60;;
71368;SDS011;59175;53.214;5.728;2023-03-23T08:43:58;17.70;;;1.73;;
71368;SDS011;59175;53.214;5.728;2023-03-23T08:46:24;4.53;;;1.13;;
71368;SDS011;59175;53.214;5.728;2023-03-23T08:48:49;8.47;;;1.00;;
71368;SDS011;59175;53.214;5.728;2023-03-23T08:51:14;2.77;;;0.30;;
71368;SDS011;59175;53.214;5.728;2023-03-23T08:53:40;8.77;;;0.63;;
71368;SDS011;59175;53.214;5.728;2023-03-23T08:56:06;8.03;;;1.63;;
71368;SDS011;59175;53.214;5.728;2023-03-23T08:58:32;7.13;;;0.82;;
71368;SDS011;59175;53.214;5.728;2023-03-23T09:00:59;10.32;;;0.50;;
71368;SDS011;59175;53.214;5.728;2023-03-23T09:03:25;6.20;;;1.57;;
71368;SDS011;59175;53.214;5.728;2023-03-23T09:05:50;6.07;;;1.37;;
71368;SDS011;59175;53.214;5.728;2023-03-23T09:08:15;17.70;;;1.93;;
71368;SDS011;59175;53.214;5.728;2023-03-23T09:10:40;8.03;;;0.93;;
71368;SDS011;59175;53.214;5.728;2023-03-23T09:13:06;7.00;;;0.40;;
71368;SDS011;59175;53.214;5.728;2023-03-23T09:15:31;11.48;;;1.85;;
71368;SDS011;59175;53.214;5.728;2023-03-23T09:17:57;7.38;;;1.45;;
71368;SDS011;59175;53.214;5.728;2023-03-23T09:20:23;14.30;;;1.23;;
71368;SDS011;59175;53.214;5.728;2023-03-23T09:22:50;7.22;;;0.60;;
71368;SDS011;59175;53.214;5.728;2023-03-23T09:25:17;6.63;;;1.20;;
71368;SDS011;59175;53.214;5.728;2023-03-23T09:27:45;8.45;;;0.98;;
71368;SDS011;59175;53.214;5.728;2023-03-23T09:30:14;6.20;;;0.55;;
71368;SDS011;59175;53.214;5.728;2023-03-23T09:32:39;7.50;;;0.97;;
71368;SDS011;59175;53.214;5.728;2023-03-23T09:35:06;2.88;;;0.60;;
71368;SDS011;59175;53.214;5.728;2023-03-23T09:37:36;5.60;;;0.93;;
71368;SDS011;59175;53.214;5.728;2023-03-23T09:40:02;10.10;;;1.77;;
71368;SDS011;59175;53.214;5.728;2023-03-23T09:45:10;9.80;;;2.07;;
71368;SDS011;59175;53.214;5.728;2023-03-23T09:50:17;8.52;;;1.00;;
71368;SDS011;59175;53.214;5.728;2023-03-23T09:52:51;9.20;;;1.02;;
71368;SDS011;59175;53.214;5.728;2023-03-23T09:55:18;5.20;;;1.48;;
71368;SDS011;59175;53.214;5.728;2023-03-23T09:57:46;14.60;;;1.90;;
71368;SDS011;59175;53.214;5.728;2023-03-23T10:05:29;9.45;;;1.98;;
71368;SDS011;59175;53.214;5.728;2023-03-23T10:07:55;5.28;;;0.90;;
71368;SDS011;59175;53.214;5.728;2023-03-23T10:10:22;8.13;;;0.90;;
71368;SDS011;59175;53.214;5.728;2023-03-23T10:12:54;14.20;;;1.48;;
71368;SDS011;59175;53.214;5.728;2023-03-23T10:15:23;8.10;;;1.30;;
71368;SDS011;59175;53.214;5.728;2023-03-23T10:25:26;3.30;;;0.52;;
71368;SDS011;59175;53.214;5.728;2023-03-23T10:28:01;2.27;;;0.37;;
71368;SDS011;59175;53.214;5.728;2023-03-23T10:30:30;4.05;;;0.77;;
71368;SDS011;59175;53.214;5.728;2023-03-23T10:33:08;3.95;;;0.50;;
71368;SDS011;59175;53.214;5.728;2023-03-23T10:35:39;8.48;;;0.70;;
71368;SDS011;59175;53.214;5.728;2023-03-23T10:38:09;9.88;;;1.02;;
71368;SDS011;59175;53.214;5.728;2023-03-23T10:40:42;7.67;;;0.80;;
71368;SDS011;59175;53.214;5.728;2023-03-23T10:43:08;13.20;;;0.75;;
71368;SDS011;59175;53.214;5.728;2023-03-23T10:45:34;9.38;;;0.80;;
71368;SDS011;59175;53.214;5.728;2023-03-23T10:50:29;12.15;;;1.10;;
71368;SDS011;59175;53.214;5.728;2023-03-23T10:52:56;3.90;;;1.48;;
71368;SDS011;59175;53.214;5.728;2023-03-23T10:55:22;6.27;;;1.40;;
71368;SDS011;59175;53.214;5.728;2023-03-23T11:00:32;6.45;;;1.20;;
71368;SDS011;59175;53.214;5.728;2023-03-23T11:05:43;9.88;;;1.40;;
71368;SDS011;59175;53.214;5.728;2023-03-23T11:08:13;1.45;;;0.20;;
71368;SDS011;59175;53.214;5.728;2023-03-23T11:10:47;6.95;;;1.58;;
71368;SDS011;59175;53.214;5.728;2023-03-23T11:13:14;5.93;;;0.60;;
71368;SDS011;59175;53.214;5.728;2023-03-23T11:15:40;6.47;;;0.90;;
71368;SDS011;59175;53.214;5.728;2023-03-23T11:18:09;5.07;;;0.63;;
71368;SDS011;59175;53.214;5.728;2023-03-23T11:20:41;4.68;;;0.57;;
71368;SDS011;59175;53.214;5.728;2023-03-23T11:23:08;6.50;;;0.90;;
71368;SDS011;59175;53.214;5.728;2023-03-23T11:25:46;5.83;;;0.40;;
71368;SDS011;59175;53.214;5.728;2023-03-23T11:28:11;8.00;;;0.95;;
71368;SDS011;59175;53.214;5.728;2023-03-23T11:30:37;2.83;;;0.50;;
71368;SDS011;59175;53.214;5.728;2023-03-23T11:33:02;7.13;;;1.63;;
71368;SDS011;59175;53.214;5.728;2023-03-23T11:35:28;7.27;;;1.50;;
71368;SDS011;59175;53.214;5.728;2023-03-23T11:37:54;7.37;;;1.07;;
71368;SDS011;59175;53.214;5.728;2023-03-23T11:40:21;6.85;;;0.50;;
71368;SDS011;59175;53.214;5.728;2023-03-23T11:45:13;7.43;;;1.00;;
71368;SDS011;59175;53.214;5.728;2023-03-23T11:47:41;3.85;;;0.60;;
71368;SDS011;59175;53.214;5.728;2023-03-23T11:50:21;4.88;;;1.00;;
71368;SDS011;59175;53.214;5.728;2023-03-23T11:55:28;4.10;;;0.93;;
71368;SDS011;59175;53.214;5.728;2023-03-23T11:57:55;7.47;;;1.00;;
71368;SDS011;59175;53.214;5.728;2023-03-23T12:00:21;7.72;;;1.77;;
71368;SDS011;59175;53.214;5.728;2023-03-23T12:05:44;9.55;;;1.30;;
71368;SDS011;59175;53.214;5.728;2023-03-23T12:16:20;12.45;;;0.77;;
71368;SDS011;59175;53.214;5.728;2023-03-23T12:18:51;12.45;;;0.70;;
71368;SDS011;59175;53.214;5.728;2023-03-23T12:26:25;4.72;;;1.17;;
71368;SDS011;59175;53.214;5.728;2023-03-23T12:34:01;6.40;;;0.87;;
71368;SDS011;59175;53.214;5.728;2023-03-23T12:44:07;1.20;;;0.20;;
71368;SDS011;59175;53.214;5.728;2023-03-23T12:49:03;4.70;;;1.37;;
71368;SDS011;59175;53.214;5.728;2023-03-23T12:54:07;4.20;;;0.50;;
71368;SDS011;59175;53.214;5.728;2023-03-23T12:56:35;3.28;;;0.60;;
71368;SDS011;59175;53.214;5.728;2023-03-23T12:59:17;9.00;;;0.60;;
71368;SDS011;59175;53.214;5.728;2023-03-23T13:01:46;4.13;;;0.47;;
71368;SDS011;59175;53.214;5.728;2023-03-23T13:04:32;3.92;;;0.70;;
71368;SDS011;59175;53.214;5.728;2023-03-23T13:07:01;5.47;;;0.60;;
71368;SDS011;59175;53.214;5.728;2023-03-23T13:11:54;9.77;;;1.83;;
71368;SDS011;59175;53.214;5.728;2023-03-23T13:22:17;6.70;;;0.88;;
71368;SDS011;59175;53.214;5.728;2023-03-23T13:24:51;7.25;;;0.85;;
71368;SDS011;59175;53.214;5.728;2023-03-23T13:27:17;7.07;;;1.10;;
71368;SDS011;59175;53.214;5.728;2023-03-23T13:29:45;1.90;;;0.37;;
71368;SDS011;59175;53.214;5.728;2023-03-23T13:32:12;4.63;;;1.07;;
71368;SDS011;59175;53.214;5.728;2023-03-23T13:34:40;12.88;;;1.13;;
71368;SDS011;59175;53.214;5.728;2023-03-23T13:37:09;6.35;;;0.70;;
71368;SDS011;59175;53.214;5.728;2023-03-23T13:39:55;4.13;;;0.57;;
71368;SDS011;59175;53.214;5.728;2023-03-23T13:42:24;4.50;;;0.50;;
71368;SDS011;59175;53.214;5.728;2023-03-23T13:47:25;8.03;;;0.97;;
71368;SDS011;59175;53.214;5.728;2023-03-23T13:54:48;2.97;;;1.63;;
71368;SDS011;59175;53.214;5.728;2023-03-23T13:57:23;6.43;;;1.00;;
71368;SDS011;59175;53.214;5.728;2023-03-23T13:59:54;6.47;;;0.50;;
71368;SDS011;59175;53.214;5.728;2023-03-23T14:04:55;4.28;;;0.50;;
71368;SDS011;59175;53.214;5.728;2023-03-23T14:07:20;9.17;;;1.13;;
71368;SDS011;59175;53.214;5.728;2023-03-23T14:09:46;7.73;;;1.13;;
71368;SDS011;59175;53.214;5.728;2023-03-23T14:12:17;3.00;;;0.32;;
71368;SDS011;59175;53.214;5.728;2023-03-23T14:14:44;5.10;;;0.40;;
71368;SDS011;59175;53.214;5.728;2023-03-23T14:17:22;1.73;;;0.50;;
71368;SDS011;59175;53.214;5.728;2023-03-23T14:19:51;2.25;;;0.30;;
71368;SDS011;59175;53.214;5.728;2023-03-23T14:22:33;10.18;;;1.23;;
71368;SDS011;59175;53.214;5.728;2023-03-23T14:25:00;10.38;;;0.63;;
71368;SDS011;59175;53.214;5.728;2023-03-23T14:27:26;4.55;;;0.82;;
71368;SDS011;59175;53.214;5.728;2023-03-23T14:29:58;2.30;;;0.57;;
71368;SDS011;59175;53.214;5.728;2023-03-23T14:32:24;7.22;;;0.55;;
71368;SDS011;59175;53.214;5.728;2023-03-23T14:34:52;3.42;;;0.45;;
71368;SDS011;59175;53.214;5.728;2023-03-23T14:37:18;8.60;;;0.60;;
71368;SDS011;59175;53.214;5.728;2023-03-23T14:39:45;6.60;;;0.80;;
71368;SDS011;59175;53.214;5.728;2023-03-23T14:42:14;10.15;;;0.82;;
71368;SDS011;59175;53.214;5.728;2023-03-23T14:44:42;12.45;;;1.38;;
71368;SDS011;59175;53.214;5.728;2023-03-23T14:47:27;2.85;;;0.43;;
71368;SDS011;59175;53.214;5.728;2023-03-23T14:49:54;15.27;;;0.83;;
71368;SDS011;59175;53.214;5.728;2023-03-23T14:52:21;4.40;;;0.77;;
71368;SDS011;59175;53.214;5.728;2023-03-23T14:54:48;8.75;;;1.20;;
71368;SDS011;59175;53.214;5.728;2023-03-23T14:59:39;2.13;;;0.50;;
71368;SDS011;59175;53.214;5.728;2023-03-23T15:02:05;6.97;;;0.80;;
71368;SDS011;59175;53.214;5.728;2023-03-23T15:04:31;6.68;;;0.95;;
71368;SDS011;59175;53.214;5.728;2023-03-23T15:07:00;4.67;;;0.60;;
71368;SDS011;59175;53.214;5.728;2023-03-23T15:09:26;5.13;;;0.60;;
71368;SDS011;59175;53.214;5.728;2023-03-23T15:12:01;7.93;;;0.70;;
71368;SDS011;59175;53.214;5.728;2023-03-23T15:14:28;6.68;;;0.70;;
71368;SDS011;59175;53.214;5.728;2023-03-23T15:16:55;3.30;;;0.30;;
71368;SDS011;59175;53.214;5.728;2023-03-23T15:19:23;3.80;;;0.43;;
71368;SDS011;59175;53.214;5.728;2023-03-23T15:21:56;5.22;;;0.98;;
71368;SDS011;59175;53.214;5.728;2023-03-23T15:24:36;2.42;;;0.45;;
71368;SDS011;59175;53.214;5.728;2023-03-23T15:29:52;9.80;;;0.65;;
71368;SDS011;59175;53.214;5.728;2023-03-23T15:32:27;5.27;;;0.80;;
71368;SDS011;59175;53.214;5.728;2023-03-23T15:34:53;7.93;;;1.17;;
71368;SDS011;59175;53.214;5.728;2023-03-23T15:37:21;10.05;;;1.35;;
71368;SDS011;59175;53.214;5.728;2023-03-23T15:39:47;12.50;;;1.45;;
71368;SDS011;59175;53.214;5.728;2023-03-23T15:47:43;6.82;;;1.42;;
71368;SDS011;59175;53.214;5.728;2023-03-23T15:50:19;11.38;;;1.38;;
71368;SDS011;59175;53.214;5.728;2023-03-23T15:52:45;8.73;;;1.63;;
71368;SDS011;59175;53.214;5.728;2023-03-23T15:57:41;16.88;;;1.45;;
71368;SDS011;59175;53.214;5.728;2023-03-23T16:00:07;9.85;;;1.00;;
71368;SDS011;59175;53.214;5.728;2023-03-23T16:02:33;14.63;;;2.17;;
71368;SDS011;59175;53.214;5.728;2023-03-23T16:05:00;5.50;;;1.05;;
71368;SDS011;59175;53.214;5.728;2023-03-23T16:07:25;7.87;;;1.00;;
71368;SDS011;59175;53.214;5.728;2023-03-23T16:09:50;1.83;;;0.50;;
71368;SDS011;59175;53.214;5.728;2023-03-23T16:12:16;12.57;;;0.87;;
71368;SDS011;59175;53.214;5.728;2023-03-23T16:14:41;9.23;;;1.10;;
71368;SDS011;59175;53.214;5.728;2023-03-23T16:17:09;9.83;;;1.07;;
71368;SDS011;59175;53.214;5.728;2023-03-23T16:19:35;8.70;;;0.63;;
71368;SDS011;59175;53.214;5.728;2023-03-23T16:22:00;3.93;;;1.03;;
71368;SDS011;59175;53.214;5.728;2023-03-23T16:24:25;15.13;;;1.83;;
71368;SDS011;59175;53.214;5.728;2023-03-23T16:26:50;5.87;;;1.13;;
71368;SDS011;59175;53.214;5.728;2023-03-23T16:29:16;2.27;;;0.60;;
71368;SDS011;59175;53.214;5.728;2023-03-23T16:31:41;17.57;;;2.77;;
71368;SDS011;59175;53.214;5.728;2023-03-23T16:34:07;10.57;;;1.43;;
71368;SDS011;59175;53.214;5.728;2023-03-23T16:36:32;4.85;;;0.88;;
71368;SDS011;59175;53.214;5.728;2023-03-23T16:38:58;8.50;;;1.03;;
71368;SDS011;59175;53.214;5.728;2023-03-23T16:41:23;8.77;;;1.77;;
71368;SDS011;59175;53.214;5.728;2023-03-23T16:43:48;11.73;;;0.97;;
71368;SDS011;59175;53.214;5.728;2023-03-23T16:46:13;10.17;;;1.17;;
71368;SDS011;59175;53.214;5.728;2023-03-23T16:48:39;11.50;;;1.63;;
71368;SDS011;59175;53.214;5.728;2023-03-23T16:51:04;19.43;;;1.83;;